Terminal Aerodrome Forecast
Issued by NWS

Home | Current Version | Previous Version | Text Only | Print | Product List | Glossary On
Versions: 1 2 3 4 5 6 7 8 9 10 11 12 13 14 15 16 17 18 19
052
FTUS43 KEAX 101720
TAFMKC
TAF
KMKC 101720Z 1018/1118 20012G18KT P6SM FEW120
     FM110200 06006KT P6SM SCT040
     FM110700 05007KT P6SM BKN025=

USA.gov is the U.S. government's official web portal to all federal, state and local government web resources and services.